地図

経路データ

SID SEASON NUMBER BASIN SUBBASIN NAME ISO_TIME NATURE LAT LON WMO_WIND WMO_PRES WMO_AGENCY TRACK_TYPE DIST2LAND LANDFALL IFLAG USA_AGENCY USA_ATCF_ID USA_LAT USA_LON USA_RECORD USA_STATUS USA_WIND USA_PRES USA_SSHS USA_R34_NE USA_R34_SE USA_R34_SW USA_R34_NW USA_R50_NE USA_R50_SE USA_R50_SW USA_R50_NW USA_R64_NE USA_R64_SE USA_R64_SW USA_R64_NW USA_POCI USA_ROCI USA_RMW USA_EYE TOKYO_LAT TOKYO_LON TOKYO_GRADE TOKYO_WIND TOKYO_PRES TOKYO_R50_DIR TOKYO_R50_LONG TOKYO_R50_SHORT TOKYO_R30_DIR TOKYO_R30_LONG TOKYO_R30_SHORT TOKYO_LAND CMA_LAT CMA_LON CMA_CAT CMA_WIND CMA_PRES HKO_LAT HKO_LON HKO_CAT HKO_WIND HKO_PRES NEWDELHI_LAT NEWDELHI_LON NEWDELHI_GRADE NEWDELHI_WIND NEWDELHI_PRES NEWDELHI_CI NEWDELHI_DP NEWDELHI_POCI REUNION_LAT REUNION_LON REUNION_TYPE REUNION_WIND REUNION_PRES REUNION_TNUM REUNION_CI REUNION_RMW REUNION_R34_NE REUNION_R34_SE REUNION_R34_SW REUNION_R34_NW REUNION_R50_NE REUNION_R50_SE REUNION_R50_SW REUNION_R50_NW REUNION_R64_NE REUNION_R64_SE REUNION_R64_SW REUNION_R64_NW BOM_LAT BOM_LON BOM_TYPE BOM_WIND BOM_PRES BOM_TNUM BOM_CI BOM_RMW BOM_R34_NE BOM_R34_SE BOM_R34_SW BOM_R34_NW BOM_R50_NE BOM_R50_SE BOM_R50_SW BOM_R50_NW BOM_R64_NE BOM_R64_SE BOM_R64_SW BOM_R64_NW BOM_ROCI BOM_POCI BOM_EYE BOM_POS_METHOD BOM_PRES_METHOD NADI_LAT NADI_LON NADI_CAT NADI_WIND NADI_PRES WELLINGTON_LAT WELLINGTON_LON WELLINGTON_WIND WELLINGTON_PRES DS824_LAT DS824_LON DS824_STAGE DS824_WIND DS824_PRES TD9636_LAT TD9636_LON TD9636_STAGE TD9636_WIND TD9636_PRES TD9635_LAT TD9635_LON TD9635_WIND TD9635_PRES TD9635_ROCI NEUMANN_LAT NEUMANN_LON NEUMANN_CLASS NEUMANN_WIND NEUMANN_PRES MLC_LAT MLC_LON MLC_CLASS MLC_WIND MLC_PRES USA_GUST BOM_GUST BOM_GUST_PER REUNION_GUST REUNION_GUST_PER USA_SEAHGT USA_SEARAD_NE USA_SEARAD_SE USA_SEARAD_SW USA_SEARAD_NW STORM_SPEED STORM_DIR
2009164N10131 2009 28 WP MM LINFA 2009-06-13 06:00:00 NR 9.70000 130.800 main 504 466 O_____________ jtwc_wp WP032009 9.70000 130.800 DB 20 1007 -3 1010 170 35 10 297
2009164N10131 2009 28 WP MM LINFA 2009-06-13 09:00:00 NR 9.92262 130.350 main 466 421 P_____________ WP032009 9.92262 130.350 DB 20 1007 -3 1010 170 35 10 299
2009164N10131 2009 28 WP MM LINFA 2009-06-13 12:00:00 NR 10.2000 129.900 main 421 390 O_____________ jtwc_wp WP032009 10.2000 129.900 DB 20 1007 -3 1010 170 35 11 306
2009164N10131 2009 28 WP MM LINFA 2009-06-13 15:00:00 NR 10.5699 129.450 main 384 349 P_____________ WP032009 10.5699 129.450 DB 20 1007 -3 1010 205 40 12 312
2009164N10131 2009 28 WP MM LINFA 2009-06-13 18:00:00 NR 11.0000 129.000 main 349 307 O_____________ jtwc_wp WP032009 11.0000 129.000 DB 20 1007 -3 1010 240 45 12 314
2009164N10131 2009 28 WP MM LINFA 2009-06-13 21:00:00 NR 11.4275 128.542 main 298 266 P_____________ WP032009 11.4275 128.542 DB 20 1007 -3 1010 240 45 13 316
2009164N10131 2009 28 WP MM LINFA 2009-06-14 00:00:00 NR 11.9000 128.100 main 270 240 O_____________ jtwc_wp WP032009 11.9000 128.100 DB 20 1007 -3 1010 240 45 13 322
2009164N10131 2009 28 WP MM LINFA 2009-06-14 03:00:00 NR 12.4498 127.722 main 240 215 P_____________ WP032009 12.4498 127.722 DB 20 1006 -3 1010 240 40 14 325
2009164N10131 2009 28 WP MM LINFA 2009-06-14 06:00:00 NR 13.0000 127.300 main 215 194 O_____________ jtwc_wp WP032009 13.0000 127.300 DB 20 1006 -3 1010 240 35 14 317
2009164N10131 2009 28 WP MM LINFA 2009-06-14 09:00:00 NR 13.4875 126.738 main 195 181 P_____________ WP032009 13.4875 126.738 DB 20 1006 -3 1010 240 35 15 308
2009164N10131 2009 28 WP MM LINFA 2009-06-14 12:00:00 NR 13.9000 126.100 main 183 123 O_____________ jtwc_wp WP032009 13.9000 126.100 DB 20 1006 -3 1010 240 35 15 300
2009164N10131 2009 28 WP MM LINFA 2009-06-14 15:00:00 NR 14.2225 125.442 main 113 77 P_____________ WP032009 14.2225 125.442 DB 20 1006 -3 1009 202 52 14 295
2009164N10131 2009 28 WP MM LINFA 2009-06-14 18:00:00 NR 14.5000 124.800 main 77 70 O_____________ jtwc_wp WP032009 14.5000 124.800 DB 20 1007 -3 1009 165 70 13 297
2009164N10131 2009 28 WP MM LINFA 2009-06-14 21:00:00 NR 14.8149 124.220 main 89 89 P_____________ WP032009 14.8149 124.220 DB 17 1008 -3 12 299
2009164N10131 2009 28 WP MM LINFA 2009-06-15 00:00:00 NR 15.1000 123.700 main 130 119 O_____________ jtwc_wp WP032009 15.1000 123.700 DB 15 1010 -3 11 296
2009164N10131 2009 28 WP MM LINFA 2009-06-15 03:00:00 NR 15.3000 123.197 main 127 100 P_____________ WP032009 15.3000 123.197 DB 15 1010 -3 10 295
2009164N10131 2009 28 WP MM LINFA 2009-06-15 06:00:00 NR 15.5000 122.800 main 100 61 O_____________ jtwc_wp WP032009 15.5000 122.800 DB 15 1010 -3 8 309
2009164N10131 2009 28 WP MM LINFA 2009-06-15 09:00:00 NR 15.7923 122.570 main 61 24 P_____________ WP032009 15.7923 122.570 DB 15 1010 -3 7 327
2009164N10131 2009 28 WP MM LINFA 2009-06-15 12:00:00 NR 16.1000 122.400 main 24 0 O_____________ jtwc_wp WP032009 16.1000 122.400 DB 15 1010 -3 7 324
2009164N10131 2009 28 WP MM LINFA 2009-06-15 15:00:00 NR 16.3275 122.157 main 0 0 P_____________ WP032009 16.3275 122.157 DB 15 1010 -3 7 316
2009164N10131 2009 28 WP MM LINFA 2009-06-15 18:00:00 NR 16.6000 121.900 main 0 0 O_____________ jtwc_wp WP032009 16.6000 121.900 DB 15 1010 -3 9 329
2009164N10131 2009 28 WP MM LINFA 2009-06-15 21:00:00 NR 17.0723 121.688 main 0 0 P_____________ WP032009 17.0723 121.688 DB 15 1010 -3 10 332
2009164N10131 2009 28 WP MM LINFA 2009-06-16 00:00:00 NR 17.5000 121.400 main 0 0 O_____________ jtwc_wp WP032009 17.5000 121.400 DB 15 1010 -3 9 310
2009164N10131 2009 28 WP MM LINFA 2009-06-16 03:00:00 NR 17.6600 120.952 main 0 0 P_____________ WP032009 17.6600 120.952 DB 15 1010 -3 10 282
2009164N10131 2009 28 WP MM LINFA 2009-06-16 06:00:00 NR 17.7000 120.400 main 0 0 O_____________ jtwc_wp WP032009 17.7000 120.400 DB 15 1010 -3 11 276
2009164N10131 2009 28 WP MM LINFA 2009-06-16 09:00:00 NR 17.7800 119.808 main 57 57 P_____________ WP032009 17.7800 119.808 DB 17 1008 -3 11 275
2009164N10131 2009 28 WP MM LINFA 2009-06-16 12:00:00 TS 17.8000 119.200 main 118 118 O_____________ jtwc_wp WP032009 17.8000 119.200 TD 20 1007 -1 11 266
2009164N10131 2009 28 WP MM LINFA 2009-06-16 15:00:00 TS 17.7074 118.627 main 180 180 P_____________ WP032009 17.7074 118.627 TD 20 1007 -1 11 259
2009164N10131 2009 28 WP MM LINFA 2009-06-16 18:00:00 TS 17.6000 118.100 main 232 232 O_____________ jtwc_wp WP032009 17.6000 118.100 TD 20 1007 -1 10 261
2009164N10131 2009 28 WP MM LINFA 2009-06-16 21:00:00 TS 17.5551 117.575 main 275 275 P_____________ WP032009 17.5551 117.575 TD 20 1007 -1 9 270
2009164N10131 2009 28 WP MM LINFA 2009-06-17 00:00:00 NR 17.6000 117.200 main 312 312 O_____________ jtwc_wp WP032009 17.6000 117.200 DB 20 1007 -3 1009 165 70 5 298
2009164N10131 2009 28 WP MM LINFA 2009-06-17 03:00:00 NR 17.7923 117.105 main 332 332 P_____________ WP032009 17.7923 117.105 DB 22 1005 -3 1008 165 62 3 312
2009164N10131 2009 28 WP MM LINFA 2009-06-17 06:00:00 TS 17.8000 116.967 1004 tokyo main 341 341 OOO___________ jtwc_wp WP032009 18.0000 117.100 TD 25 1004 -1 1007 165 55 17.4000 116.700 2 1004 0 0 0 17.4000 116.700 1 25 1002 3 274
2009164N10131 2009 28 WP MM LINFA 2009-06-17 09:00:00 TS 17.8125 116.811 main 360 360 PPP___________ WP032009 18.0875 116.958 TD 27 1002 -1 1007 165 52 17.5050 116.672 2 1004 0 0 17.5700 116.658 1 25 1002 3 286
2009164N10131 2009 28 WP MM LINFA 2009-06-17 12:00:00 TS 17.8727 116.691 1004 tokyo main 375 375 OOOO__________ jtwc_wp WP032009 18.1000 116.800 TD 30 1000 -1 1007 165 50 17.6000 116.600 2 1004 0 0 0 17.7000 116.600 1 25 1002 18.3000 116.800 TD 25 1000 2 293
2009164N10131 2009 28 WP MM LINFA 2009-06-17 15:00:00 TS 17.9046 116.583 main 384 384 PPPP__________ WP032009 18.0725 116.692 TD 32 998 -1 1006 157 45 17.6725 116.458 2 1003 0 0 17.7650 116.515 1 27 1002 18.3125 116.748 TD 27 999 2 286
2009164N10131 2009 28 WP MM LINFA 2009-06-17 18:00:00 TS 17.9267 116.487 1002 tokyo main 393 393 OOOO__________ jtwc_wp WP032009 18.0000 116.600 TS 35 996 0 1006 150 40 17.7000 116.300 2 1002 0 0 0 17.8000 116.400 1 29 1002 18.3000 116.700 TD 30 998 2 278
2009164N10131 2009 28 WP MM LINFA 2009-06-17 21:00:00 TS 17.9313 116.379 main 403 403 PPPP__________ WP032009 17.9075 116.477 TS 37 994 0 1006 150 35 17.6800 116.162 2 1001 0 0 17.8875 116.220 1 31 1001 18.2500 116.657 TD 30 998 2 254
2009164N10131 2009 28 WP MM LINFA 2009-06-18 00:00:00 TS 17.8750 116.300 35 1000 tokyo main 412 408 OOOO__________ jtwc_wp WP032009 17.8000 116.400 TS 40 993 0 30 40 40 30 1006 150 30 17.6000 116.100 3 35 1000 0 9 100 100 0 17.9000 116.100 2 34 1000 18.2000 116.600 TD 30 998 2 202
2009164N10131 2009 28 WP MM LINFA 2009-06-18 03:00:00 TS 17.7719 116.309 main 408 394 PPPP__________ WP032009 17.6925 116.413 TS 40 993 0 32 40 40 32 1005 185 27 17.4500 116.170 3 35 999 0 9 100 100 17.7225 116.155 2 34 997 18.2225 116.500 TD 32 996 2 164
2009164N10131 2009 28 WP MM LINFA 2009-06-18 06:00:00 TS 17.6500 116.375 35 998 tokyo main 394 385 OOOO__________ jtwc_wp WP032009 17.6000 116.500 TS 40 993 0 35 40 40 35 1005 220 25 17.3000 116.300 3 35 998 0 9 100 100 0 17.5000 116.300 2 34 995 18.2000 116.400 TS 35 995 3 152
2009164N10131 2009 28 WP MM LINFA 2009-06-18 09:00:00 TS 17.5275 116.446 main 385 375 PPPP__________ WP032009 17.5200 116.643 TS 40 993 0 35 40 40 35 1005 220 25 17.2125 116.385 3 35 996 0 9 100 100 17.3625 116.443 2 34 995 18.0150 116.312 TS 35 995 3 140
2009164N10131 2009 28 WP MM LINFA 2009-06-18 12:00:00 TS 17.4500 116.550 35 994 tokyo main 366 352 OOOO__________ jtwc_wp WP032009 17.5000 116.800 TS 40 993 0 35 40 40 35 1005 220 25 17.2000 116.500 3 35 994 0 9 100 100 0 17.3000 116.600 2 34 995 17.8000 116.300 TS 35 995 2 108
2009164N10131 2009 28 WP MM LINFA 2009-06-18 15:00:00 TS 17.4519 116.693 main 356 346 PPPP__________ WP032009 17.5550 116.908 TS 42 991 0 35 37 40 32 1004 200 25 17.2775 116.692 3 35 994 0 9 100 100 17.3050 116.750 2 34 995 17.6700 116.420 TS 35 995 3 75
2009164N10131 2009 28 WP MM LINFA 2009-06-18 18:00:00 TS 17.5250 116.850 35 994 tokyo main 336 331 OOOO__________ jtwc_wp WP032009 17.7000 117.000 TS 45 989 0 35 35 40 30 1004 180 25 17.4000 116.900 3 35 994 0 9 100 100 0 17.4000 116.900 2 34 995 17.6000 116.600 TS 35 995 3 59
2009164N10131 2009 28 WP MM LINFA 2009-06-18 21:00:00 TS 17.6212 116.995 main 331 327 PPPP__________ WP032009 17.9275 117.100 TS 45 989 0 35 35 40 30 1003 170 25 17.4550 117.073 3 37 993 0 9 110 100 17.5625 117.065 2 36 995 17.5400 116.743 TS 37 992 4 44
2009164N10131 2009 28 WP MM LINFA 2009-06-19 00:00:00 TS 17.8000 117.125 40 992 tokyo main 332 329 OOOO__________ jtwc_wp WP032009 18.2000 117.200 TS 45 989 0 35 35 40 30 1003 160 25 17.6000 117.200 3 40 992 0 5 120 100 0 17.8000 117.200 2 38 995 17.6000 116.900 TS 40 990 5 28
2009164N10131 2009 28 WP MM LINFA 2009-06-19 03:00:00 TS 18.0731 117.251 main 322 322 PPPP__________ WP032009 18.4500 117.315 TS 47 987 0 35 35 40 30 1002 175 30 17.9475 117.287 3 42 991 0 5 120 100 18.0775 117.273 2 41 992 17.8176 117.130 TS 40 990 7 17
2009164N10131 2009 28 WP MM LINFA 2009-06-19 06:00:00 TS 18.4250 117.325 45 990 tokyo main 329 329 OOOO__________ jtwc_wp WP032009 18.7000 117.400 TS 50 985 0 35 35 40 30 1001 190 35 18.4000 117.300 3 45 990 0 5 120 100 0 18.4000 117.300 2 44 990 18.2000 117.300 TS 40 990 8 4
2009164N10131 2009 28 WP MM LINFA 2009-06-19 09:00:00 TS 18.8325 117.310 main 344 344 PPPP__________ WP032009 18.9500 117.415 TS 52 983 0 47 40 45 30 1001 190 35 18.8725 117.223 3 47 987 0 5 130 100 18.7575 117.315 2 46 990 18.7500 117.288 TS 42 989 8 355
2009164N10131 2009 28 WP MM LINFA 2009-06-19 12:00:00 TS 19.2250 117.250 50 985 tokyo main 358 358 OOOO__________ jtwc_wp WP032009 19.2000 117.400 TS 55 982 0 60 45 50 30 1001 190 35 19.3000 117.100 4 50 985 0 4 140 100 0 19.1000 117.300 3 48 990 19.3000 117.200 TS 45 988 7 351
2009164N10131 2009 28 WP MM LINFA 2009-06-19 15:00:00 TS 19.5175 117.189 main 378 364 PPPP__________ WP032009 19.4500 117.400 TS 57 980 0 60 50 47 35 1001 190 35 19.5950 116.970 4 50 985 0 4 140 100 19.3650 117.250 3 48 990 19.6600 117.135 TS 47 986 5 350
2009164N10131 2009 28 WP MM LINFA 2009-06-19 18:00:00 TS 19.7500 117.150 50 985 tokyo main 354 343 OOOO__________ jtwc_wp WP032009 19.7000 117.400 TS 60 978 0 60 55 45 40 10 10 10 10 1001 190 35 19.8000 116.900 4 50 985 0 4 140 100 0 19.6000 117.200 3 48 990 19.9000 117.100 STS 50 985 4 357
2009164N10131 2009 28 WP MM LINFA 2009-06-19 21:00:00 TS 19.9556 117.167 main 332 321 PPPP__________ WP032009 19.9500 117.393 TS 62 976 0 70 65 45 42 22 22 17 20 1001 190 35 19.9575 116.970 4 52 982 0 4 150 100 19.8500 117.178 3 51 987 20.0650 117.127 STS 50 985 4 9
2009164N10131 2009 28 WP MM LINFA 2009-06-20 00:00:00 TS 20.1500 117.225 55 980 tokyo main 310 302 OOOO__________ jtwc_wp WP032009 20.2000 117.400 TY 65 974 1 80 75 45 45 35 35 25 30 1001 190 35 20.1000 117.100 4 55 980 9 30 30 3 160 100 0 20.1000 117.200 3 54 985 20.2000 117.200 STS 50 985 4 15
2009164N10131 2009 28 WP MM LINFA 2009-06-20 03:00:00 TS 20.3581 117.285 main 291 273 PPPP__________ WP032009 20.4425 117.420 TY 65 978 1 62 85 57 45 37 37 27 30 1001 190 32 20.2699 117.178 4 57 977 9 35 35 3 160 100 20.3425 117.270 3 56 982 20.3774 117.270 STS 52 982 5 20
2009164N10131 2009 28 WP MM LINFA 2009-06-20 06:00:00 TS 20.6000 117.400 60 975 tokyo main 273 250 OOOO__________ jtwc_wp WP032009 20.7000 117.500 TY 65 983 1 45 95 70 45 40 40 30 30 1001 190 30 20.5000 117.300 4 60 975 9 40 40 3 160 100 0 20.6000 117.400 3 58 980 20.6000 117.400 STS 55 980 6 30
2009164N10131 2009 28 WP MM LINFA 2009-06-20 09:00:00 TS 20.8920 117.617 main 250 232 PPPP__________ WP032009 20.9776 117.692 TY 70 975 1 62 87 72 50 40 40 32 32 1001 190 30 20.8276 117.542 4 60 975 9 40 40 3 160 100 20.8850 117.592 3 58 980 20.8776 117.642 STS 57 977 8 34
2009164N10131 2009 28 WP MM LINFA 2009-06-20 12:00:00 TS 21.2250 117.850 60 975 tokyo main 238 219 OOOO__________ jtwc_wp WP032009 21.3000 117.900 TY 75 967 1 80 80 75 55 40 40 35 35 30 30 20 20 1001 190 30 20 21.2000 117.800 4 60 975 9 40 40 3 160 100 0 21.2000 117.800 3 58 980 21.2000 117.900 STS 60 975 8 28
2009164N10131 2009 28 WP MM LINFA 2009-06-20 15:00:00 TS 21.5650 118.005 main 211 198 PPPP__________ WP032009 21.6774 118.008 TY 72 968 1 80 80 75 55 40 40 35 35 30 30 20 20 1001 190 30 21.5425 117.973 4 60 975 9 40 40 3 160 100 21.5200 117.965 3 58 980 21.5200 118.073 STS 60 975 8 20
2009164N10131 2009 28 WP MM LINFA 2009-06-20 18:00:00 TS 21.9500 118.125 60 975 tokyo main 192 157 OOOO__________ jtwc_wp WP032009 22.1000 118.100 TY 70 970 1 80 80 75 55 40 40 35 35 30 30 20 20 1001 190 30 20 21.9000 118.100 4 60 975 9 40 40 3 160 100 0 21.9000 118.100 3 58 980 21.9000 118.200 STS 60 975 9 15
2009164N10131 2009 28 WP MM LINFA 2009-06-20 21:00:00 TS 22.4031 118.252 main 161 123 PPPP__________ WP032009 22.5500 118.257 TY 67 972 1 75 72 65 50 37 37 30 27 1001 160 30 22.3000 118.222 4 60 975 9 40 40 3 160 100 22.3850 118.215 3 58 980 22.3775 118.315 STS 55 977 10 13
2009164N10131 2009 28 WP MM LINFA 2009-06-21 00:00:00 TS 22.8750 118.350 60 975 tokyo main 121 90 OOOO__________ jtwc_wp WP032009 23.0000 118.400 TY 65 974 1 70 65 55 45 35 35 25 20 1001 130 30 22.7000 118.300 4 60 975 9 40 40 3 160 100 0 22.9000 118.300 3 58 980 22.9000 118.400 STS 50 980 9 9
2009164N10131 2009 28 WP MM LINFA 2009-06-21 03:00:00 TS 23.3206 118.404 main 90 60 PPPP__________ WP032009 23.4150 118.480 TY 60 978 0 87 97 85 67 47 52 40 40 1001 140 37 23.0575 118.315 4 57 977 9 35 35 3 160 100 23.3800 118.358 3 56 980 23.4300 118.465 STS 47 981 9 5
2009164N10131 2009 28 WP MM LINFA 2009-06-21 06:00:00 TS 23.7250 118.425 55 980 tokyo main 60 45 OOOO__________ jtwc_wp WP032009 23.8000 118.500 TS 55 982 0 105 130 115 90 60 70 55 60 1001 150 45 23.4000 118.300 4 55 980 9 30 30 4 160 100 0 23.8000 118.400 3 54 980 23.9000 118.500 TS 45 982 7 0
2009164N10131 2009 28 WP MM LINFA 2009-06-21 09:00:00 TS 24.0556 118.401 main 37 22 PPPP__________ WP032009 24.1500 118.435 TS 52 983 0 105 130 115 90 60 70 55 60 1001 150 50 23.7274 118.248 4 52 980 9 4 140 90 24.1150 118.435 3 54 980 24.2300 118.485 TS 45 982 7 1
2009164N10131 2009 28 WP MM LINFA 2009-06-21 12:00:00 TS 24.3750 118.425 50 980 tokyo main 22 0 OOOO__________ jtwc_wp WP032009 24.5000 118.400 TS 50 985 0 105 130 115 90 60 70 55 60 1001 150 55 24.1000 118.300 4 50 980 0 4 120 80 0 24.4000 118.500 3 54 980 24.5000 118.500 TS 45 982 7 13
2009164N10131 2009 28 WP MM LINFA 2009-06-21 15:00:00 TS 24.7531 118.578 main 0 0 PPPP__________ WP032009 24.9074 118.497 TS 42 991 0 105 130 115 90 1000 130 45 24.5852 118.597 4 45 986 0 4 100 70 24.7349 118.613 3 49 985 24.7849 118.605 TS 45 983 9 25
2009164N10131 2009 28 WP MM LINFA 2009-06-21 18:00:00 TS 25.1500 118.825 40 992 tokyo main 0 0 OOOO__________ jtwc_wp WP032009 25.3000 118.700 TS 35 997 0 105 130 115 90 1000 110 35 25.1000 119.000 3 40 992 0 4 80 60 0 25.1000 118.800 2 44 990 25.1000 118.800 TS 45 985 9 32
2009164N10131 2009 28 WP MM LINFA 2009-06-21 21:00:00 TS 25.5074 119.099 main 0 0 PPPP__________ WP032009 25.5923 118.948 TS 32 997 -1 1000 105 27 25.5197 119.329 3 37 994 0 4 80 60 25.4399 119.056 2 41 992 25.4775 119.063 TS 42 987 10 36
2009164N10131 2009 28 WP MM LINFA 2009-06-22 00:00:00 TS 25.9250 119.450 35 996 tokyo main 0 0 OOOO__________ jtwc_wp WP032009 25.9000 119.300 TD 30 998 -1 1000 100 20 26.0000 119.700 3 35 996 0 4 80 60 0 25.9000 119.400 2 38 995 25.9000 119.400 TS 40 990 12 35
2009164N10131 2009 28 WP MM LINFA 2009-06-22 03:00:00 TS 26.4918 119.875 main 9 0 PPPP__________ WP032009 26.3350 119.762 TD 30 999 -1 1000 107 20 26.6700 120.170 3 997 0 4 26.6424 119.812 2 36 995 26.3197 119.756 TS 37 991 15 35
2009164N10131 2009 28 WP MM LINFA 2009-06-22 06:00:00 TS 27.1200 120.380 998 tokyo main 0 0 OOOO__________ jtwc_wp WP032009 26.8000 120.300 TD 30 1000 -1 1001 115 20 27.4000 120.700 2 998 0 0 0 27.4000 120.300 2 34 995 26.8000 120.200 TS 35 992 16 38
2009164N10131 2009 28 WP MM LINFA 2009-06-22 09:00:00 TS 27.7183 120.946 main 14 0 PPPP__________ WP032009 27.2178 120.850 TD 27 1002 -1 1003 115 20 28.1175 121.257 2 999 0 0 27.9025 120.843 2 29 996 27.3853 120.785 TS 30 993 15 41
2009164N10131 2009 28 WP MM LINFA 2009-06-22 12:00:00 TS 28.2769 121.523 1000 tokyo main 0 0 OOOO__________ jtwc_wp WP032009 27.6000 121.400 TD 25 1004 -1 1005 115 20 28.7000 121.800 2 1000 0 0 0 28.3000 121.400 1 25 998 28.0000 121.400 TD 25 995 14 42
2009164N10131 2009 28 WP MM LINFA 2009-06-22 15:00:00 TS 28.7653 122.015 main 29 29 _PPP__________ WP032009 TD -1 29.0091 122.222 2 1000 0 0 28.7222 121.908 1 25 999 28.5646 121.916 TD 25 996 12 45
2009164N10131 2009 28 WP MM LINFA 2009-06-22 18:00:00 TS 29.1364 122.509 1000 tokyo main 49 48 _OOO__________ 29.2000 122.700 2 1000 0 0 0 29.1000 122.400 1 25 1000 29.1000 122.400 TD 25 998 12 53
2009164N10131 2009 28 WP MM LINFA 2009-06-22 21:00:00 TS 29.4793 123.080 main 111 111 _PPP__________ 29.4656 123.427 2 1000 0 0 29.4287 122.826 1 25 1000 29.6080 122.894 TD 25 998 12 61
2009164N10131 2009 28 WP MM LINFA 2009-06-23 00:00:00 TS 29.7444 123.756 1000 tokyo main 182 182 _OOO__________ 29.7000 124.200 2 1000 0 0 0 29.7000 123.400 1 25 1000 30.1000 123.400 TD 25 998 12 75
2009164N10131 2009 28 WP MM LINFA 2009-06-23 03:00:00 TS 29.7885 124.422 main 240 240 _PP___________ 29.7551 124.642 2 1000 0 0 29.8219 124.203 1 27 1000 TD 15 78
2009164N10131 2009 28 WP MM LINFA 2009-06-23 06:00:00 ET 30.0500 125.400 1000 tokyo main 338 279 _OO___________ 30.0000 125.400 6 1000 0 0 0 30.1000 125.400 9 29 1000 25 66
2009164N10131 2009 28 WP MM LINFA 2009-06-23 09:00:00 ET 30.7896 127.045 main 270 113 _PP___________ 30.7616 127.014 6 999 0 0 30.8176 127.076 9 29 999 36 63
2009164N10131 2009 28 WP MM LINFA 2009-06-23 12:00:00 ET 31.7000 129.100 998 tokyo main 104 0 _OO___________ 31.7000 129.100 6 998 0 0 0 31.7000 129.100 9 29 998 40 64
2009164N10131 2009 28 WP MM LINFA 2009-06-23 15:00:00 ET 32.5174 131.233 main 0 0 _PP___________ 32.5253 131.241 6 998 0 0 32.5096 131.226 9 27 998 39 68
2009164N10131 2009 28 WP MM LINFA 2009-06-23 18:00:00 ET 33.2000 133.400 998 tokyo main 18 0 _OO___________ 33.2000 133.400 6 998 0 0 0 33.2000 133.400 9 25 998 36 73
2009164N10131 2009 28 WP MM LINFA 2009-06-23 21:00:00 ET 33.5526 135.333 main 14 0 _PP___________ 33.5192 135.276 6 998 0 0 33.5860 135.389 9 25 998 33 77
2009164N10131 2009 28 WP MM LINFA 2009-06-24 00:00:00 ET 33.9500 137.300 998 tokyo main 49 21 _OO___________ 33.9000 137.200 6 998 0 0 0 34.0000 137.400 9 25 998 38 72
2009164N10131 2009 28 WP MM LINFA 2009-06-24 03:00:00 ET 34.7272 139.646 main 35 9 _PP___________ 34.7205 139.580 6 999 0 0 34.7340 139.712 9 25 999 42 66
2009164N10131 2009 28 WP MM LINFA 2009-06-24 06:00:00 ET 35.6500 142.000 1000 tokyo main 99 99 _OO___________ 35.7000 142.000 6 1000 0 0 0 35.6000 142.000 9 25 1000 40 63
2009164N10131 2009 28 WP MM LINFA 2009-06-24 09:00:00 ET 36.5285 144.069 main 281 281 _PP___________ 36.6188 144.129 6 1000 0 0 36.4383 144.008 9 25 1000 36 61
2009164N10131 2009 28 WP MM LINFA 2009-06-24 12:00:00 ET 37.4000 145.900 1000 tokyo main 398 398 _OO___________ 37.5000 146.000 6 1000 0 0 0 37.3000 145.800 9 25 1000 32 58
2009164N10131 2009 28 WP MM LINFA 2009-06-24 15:00:00 ET 38.2437 147.527 main 488 488 _PP___________ 38.2970 147.615 6 1001 0 0 38.1904 147.440 9 25 1001 29 57
2009164N10131 2009 28 WP MM LINFA 2009-06-24 18:00:00 ET 39.0000 149.057 1002 tokyo main 555 550 _OO___________ 39.0000 149.100 6 1002 0 0 0 39.0000 149.000 9 25 1002 28 61
2009164N10131 2009 28 WP MM LINFA 2009-06-24 21:00:00 ET 39.5951 150.657 main 589 587 _PP___________ 39.5846 150.674 6 1002 0 0 39.6160 150.622 9 25 1002 27 66
2009164N10131 2009 28 WP MM LINFA 2009-06-25 00:00:00 ET 40.1000 152.300 1002 tokyo main 644 641 _OO___________ 40.1000 152.300 6 1002 0 0 0 40.1000 152.300 9 25 1002 29 69
2009164N10131 2009 28 WP MM LINFA 2009-06-25 03:00:00 ET 40.6255 154.154 main 664 659 _P____________ 40.6255 154.154 6 1002 0 0 9 28 69
2009164N10131 2009 28 WP MM LINFA 2009-06-25 06:00:00 ET 41.1000 155.800 1002 tokyo main 700 700 _O____________ 41.1000 155.800 6 1002 0 0 0 22 66
2009164N10131 2009 28 WP MM LINFA 2009-06-25 09:00:00 ET 41.5174 156.817 main 721 719 _P____________ 41.5174 156.817 6 1002 0 0 16 59
2009164N10131 2009 28 WP MM LINFA 2009-06-25 12:00:00 ET 41.9000 157.600 1002 tokyo main 738 738 _O____________ 41.9000 157.600 6 1002 0 0 0 16 61
2009164N10131 2009 28 WP MM LINFA 2009-06-25 15:00:00 ET 42.2886 158.659 main 782 782 _P____________ 42.2886 158.659 6 1002 0 0 16 65
2009164N10131 2009 28 WP MM LINFA 2009-06-25 18:00:00 ET 42.6000 159.600 1002 tokyo main 825 825 _O____________ 42.6000 159.600 6 1002 0 0 0 12 67
2009164N10131 2009 28 WP MM LINFA 2009-06-25 21:00:00 ET 42.7557 160.163 main 856 856 _P____________ 42.7557 160.163 6 1003 0 0 8 68
2009164N10131 2009 28 WP MM LINFA 2009-06-26 00:00:00 ET 42.9000 160.600 1004 tokyo main 879 870 _O____________ 42.9000 160.600 6 1004 0 0 0 9 60
2009164N10131 2009 28 WP MM LINFA 2009-06-26 03:00:00 ET 43.1923 161.177 main 874 863 _P____________ 43.1923 161.177 6 1004 0 0 11 56
2009164N10131 2009 28 WP MM LINFA 2009-06-26 06:00:00 ET 43.5000 161.800 1004 tokyo main 867 861 _O____________ 43.5000 161.800 6 1004 0 0 0 11 62
2009164N10131 2009 28 WP MM LINFA 2009-06-26 09:00:00 ET 43.6927 162.474 main 876 876 _P____________ 43.6927 162.474 6 1004 0 0 10 67
2009164N10131 2009 28 WP MM LINFA 2009-06-26 12:00:00 ET 43.9000 163.100 1004 tokyo main 884 877 _O____________ 43.9000 163.100 6 1004 0 0 0 9 56
2009164N10131 2009 28 WP MM LINFA 2009-06-26 15:00:00 ET 44.2039 163.544 main 877 862 _P____________ 44.2039 163.544 6 1005 0 0 10 43
2009164N10131 2009 28 WP MM LINFA 2009-06-26 18:00:00 ET 44.6000 164.000 1006 tokyo main 868 862 _O____________ 44.6000 164.000 6 1006 0 0 0 12 43
2009164N10131 2009 28 WP MM LINFA 2009-06-26 21:00:00 ET 45.0630 164.677 main 865 862 _P____________ 45.0630 164.677 6 1006 0 0 14 45
2009164N10131 2009 28 WP MM LINFA 2009-06-27 00:00:00 ET 45.6000 165.400 1006 tokyo main 862 839 _O____________ 45.6000 165.400 6 1006 0 0 0 15 39
2009164N10131 2009 28 WP MM LINFA 2009-06-27 03:00:00 ET 46.1917 166.001 main 839 823 _P____________ 46.1917 166.001 6 1005 0 0 15 35
2009164N10131 2009 28 WP MM LINFA 2009-06-27 06:00:00 ET 46.8000 166.600 1004 tokyo main 823 815 _O____________ 46.8000 166.600 6 1004 0 0 0 15 39
2009164N10131 2009 28 WP MM LINFA 2009-06-27 09:00:00 ET 47.3355 167.330 main 820 800 _P____________ 47.3355 167.330 6 1004 0 0 14 41
2009164N10131 2009 28 WP MM LINFA 2009-06-27 12:00:00 ET 47.9000 168.000 1004 tokyo main 800 772 _O____________ 47.9000 168.000 6 1004 0 0 0 14 30
2009164N10131 2009 28 WP MM LINFA 2009-06-27 15:00:00 ET 48.5840 168.425 main 764 735 _P____________ 48.5840 168.425 6 1004 0 0 15 21
2009164N10131 2009 28 WP MM LINFA 2009-06-27 18:00:00 ET 49.3000 168.800 1004 tokyo main 735 720 _O____________ 49.3000 168.800 6 1004 0 0 0 15 23
2009164N10131 2009 28 WP MM LINFA 2009-06-27 21:00:00 ET 49.9423 169.315 main 720 692 _P____________ 49.9423 169.315 6 1004 0 0 15 29
2009164N10131 2009 28 WP MM LINFA 2009-06-28 00:00:00 ET 50.6000 169.900 1004 tokyo main 692 673 _O____________ 50.6000 169.900 6 1004 0 0 0 16 29
2009164N10131 2009 28 WP MM LINFA 2009-06-28 03:00:00 ET 51.3197 170.522 main 673 664 _P____________ 51.3197 170.522 6 1004 0 0 17 28
2009164N10131 2009 28 WP MM LINFA 2009-06-28 06:00:00 ET 52.1000 171.200 1004 tokyo main 665 655 _O____________ 52.1000 171.200 6 1004 0 0 0 19 29
2009164N10131 2009 28 WP MM LINFA 2009-06-28 09:00:00 ET 52.9507 171.992 main 654 645 _P____________ 52.9507 171.992 6 1004 0 0 19 28
2009164N10131 2009 28 WP MM LINFA 2009-06-28 12:00:00 ET 53.8000 172.700 1004 tokyo main 646 610 _O____________ 53.8000 172.700 6 1004 0 0 0 18 22
2009164N10131 2009 28 WP MM LINFA 2009-06-28 15:00:00 ET 54.5942 173.136 main 610 541 _P____________ 54.5942 173.136 6 1004 0 0 15 15
2009164N10131 2009 28 WP MM LINFA 2009-06-28 18:00:00 ET 55.3000 173.400 1004 tokyo main 541 483 _O____________ 55.3000 173.400 6 1004 0 0 0 13 12
2009164N10131 2009 28 WP MM LINFA 2009-06-28 21:00:00 ET 55.8873 173.617 main 483 437 _P____________ 55.8873 173.617 6 1005 0 0 11 12
2009164N10131 2009 28 WP MM LINFA 2009-06-29 00:00:00 ET 56.4000 173.800 1006 tokyo main 437 395 _O____________ 56.4000 173.800 6 1006 0 0 0 11 14
2009164N10131 2009 28 WP MM LINFA 2009-06-29 03:00:00 ET 56.9301 174.072 main 398 359 _P____________ 56.9301 174.072 6 1006 0 0 10 15
2009164N10131 2009 28 WP MM LINFA 2009-06-29 06:00:00 ET 57.4000 174.300 1006 tokyo main 359 329 _O____________ 57.4000 174.300 6 1006 0 0 0 9 13
2009164N10131 2009 28 WP MM LINFA 2009-06-29 09:00:00 ET 57.7947 174.455 main 334 306 _P____________ 57.7947 174.455 6 1007 0 0 7 5
2009164N10131 2009 28 WP MM LINFA 2009-06-29 12:00:00 ET 58.1000 174.400 1008 tokyo main 306 274 _O____________ 58.1000 174.400 6 1008 0 0 0 6 338
2009164N10131 2009 28 WP MM LINFA 2009-06-29 15:00:00 ET 58.3604 174.020 main 267 238 _P____________ 58.3604 174.020 6 1008 0 0 6 310
2009164N10131 2009 28 WP MM LINFA 2009-06-29 18:00:00 ET 58.5000 173.500 1008 tokyo main 238 221 _O____________ 58.5000 173.500 6 1008 0 0 0 5 285
2009164N10131 2009 28 WP MM LINFA 2009-06-29 21:00:00 ET 58.4949 173.084 main 221 213 _P____________ 58.4949 173.084 6 1008 0 0 4 257
2009164N10131 2009 28 WP MM LINFA 2009-06-30 00:00:00 ET 58.4000 172.700 1008 tokyo main 214 204 _O____________ 58.4000 172.700 6 1008 0 0 0 4 247
2009164N10131 2009 28 WP MM LINFA 2009-06-30 03:00:00 ET 58.3226 172.297 main 210 204 _P____________ 58.3226 172.297 6 1007 0 0 4 241
2009164N10131 2009 28 WP MM LINFA 2009-06-30 06:00:00 ET 58.2000 172.000 1006 tokyo main 211 211 _O____________ 58.2000 172.000 6 1006 0 0 0 4 215
2009164N10131 2009 28 WP MM LINFA 2009-06-30 09:00:00 ET 58.0174 171.893 main 229 229 _P____________ 58.0174 171.893 6 1006 0 0 4 188
2009164N10131 2009 28 WP MM LINFA 2009-06-30 12:00:00 ET 57.8000 171.900 1006 tokyo main 249 _O____________ 57.8000 171.900 6 1006 0 0 0 4 0

デジタル台風データ・検索

IBTrACS Databaseについて

本データベースは、米国NOAAが公開する1842年以降の世界の熱帯低気圧のベストトラックデータアーカイブInternational Best Track Archive for Climate Stewardship (IBTrACS)を、ウェブで閲覧しやすい形式に変換したものです。

最終更新日:2021-10-21